Terminal Aerodrome Forecast
Issued by NWS Tampa Bay Area, FL

Home | Current Version | Previous Version | Text Only | Print | Product List | Glossary On
Versions: 1 2 3 4 5 6 7 8 9 10 11 12 13 14 15 16 17 18 19 20 21 22 23 24 25 26 27 28
784
FTUS42 KTBW 232323
TAFTPA
TAF
KTPA 232323Z 2400/2506 28007KT P6SM VCSH SCT015 BKN035
     FM240200 04007KT P6SM VCSH BKN015 OVC025
     FM240500 03007KT 6SM BR BKN008 OVC040
     FM241600 03008KT P6SM BKN015 BKN030
     FM241900 04007KT P6SM FEW020 SCT035
     FM250100 36006KT P6SM SCT045=

USA.gov is the U.S. government's official web portal to all federal, state and local government web resources and services.